Time;durP1;ratioP1;P1;durP2;ratioP2;P2;SDS_P1;SDS_P2;PMS_P1;PMS_P2;Temp;Humidity;BMP_temperature;BMP_pressure;BME280_temperature;BME280_humidity;BME280_pressure;Samples;Min_cycle;Max_cycle;Signal;HPM_P1;HPM_P2
2022/04/15 00:01:35;;;;;;;13.18;7.57;;;;;;;-142.91;100.00;56616.03;5016360;28;20207;-70
2022/04/15 00:04:03;;;;;;;15.88;7.30;;;;;;;-142.91;100.00;56616.03;5016723;28;20254;-71
2022/04/15 00:06:29;;;;;;;11.05;6.82;;;;;;;-142.91;100.00;56616.03;5016142;28;20199;-71
2022/04/15 00:08:56;;;;;;;12.25;6.88;;;;;;;-142.91;100.00;56616.03;5016714;28;20227;-69
2022/04/15 00:11:23;;;;;;;13.60;7.10;;;;;;;-142.91;100.00;56616.03;5015608;28;20223;-70
2022/04/15 00:13:50;;;;;;;10.15;5.88;;;;;;;-142.91;100.00;56616.03;5015761;28;20263;-70
2022/04/15 00:16:18;;;;;;;10.68;6.30;;;;;;;-142.91;100.00;56616.03;5016331;28;20235;-70
2022/04/15 00:18:45;;;;;;;13.80;6.43;;;;;;;-142.91;100.00;56616.03;5016566;28;20228;-71
2022/04/15 00:21:12;;;;;;;11.13;5.78;;;;;;;-142.91;100.00;56616.03;5016338;28;20212;-70
2022/04/15 00:23:39;;;;;;;5.88;5.15;;;;;;;-142.91;100.00;56616.03;5016523;28;20212;-70
2022/04/15 00:26:06;;;;;;;12.95;6.53;;;;;;;-142.91;100.00;56616.03;5016190;28;20204;-70
2022/04/15 00:28:33;;;;;;;11.18;5.97;;;;;;;-142.91;100.00;56616.03;5016385;28;20223;-69
2022/04/15 00:31:00;;;;;;;7.38;5.88;;;;;;;-142.91;100.00;56616.03;5016509;28;20339;-70
2022/04/15 00:33:28;;;;;;;15.13;5.45;;;;;;;-142.91;100.00;56616.03;5014945;28;20235;-70
2022/04/15 00:35:55;;;;;;;6.93;5.40;;;;;;;-142.91;100.00;56616.03;5015315;28;20706;-71
2022/04/15 00:38:22;;;;;;;13.88;6.38;;;;;;;-142.91;100.00;56616.03;5016043;28;20203;-70
2022/04/15 00:40:49;;;;;;;7.25;5.45;;;;;;;-142.91;100.00;56616.03;5016035;28;20208;-71
2022/04/15 00:43:16;;;;;;;9.25;4.95;;;;;;;-142.91;100.00;56616.03;5015952;28;20214;-70
2022/04/15 00:45:43;;;;;;;13.48;5.28;;;;;;;-142.91;100.00;56616.03;5015682;28;20203;-72
2022/04/15 00:48:11;;;;;;;10.00;5.25;;;;;;;-142.91;100.00;56616.03;5015546;28;20227;-71
2022/04/15 00:50:40;;;;;;;8.32;4.85;;;;;;;-142.91;100.00;56616.03;5015874;28;20301;-70
2022/04/15 00:53:10;;;;;;;7.57;4.93;;;;;;;-142.91;100.00;56616.03;5015517;28;20200;-70
2022/04/15 00:55:38;;;;;;;6.78;4.90;;;;;;;-142.91;100.00;56616.03;5015435;28;20276;-71
2022/04/15 00:58:06;;;;;;;5.38;4.88;;;;;;;-142.91;100.00;56616.03;5016339;28;20207;-71
2022/04/15 01:00:35;;;;;;;5.50;4.95;;;;;;;-142.91;100.00;56616.03;5014835;28;20254;-72
2022/04/15 01:03:03;;;;;;;7.25;4.35;;;;;;;-142.91;100.00;56616.03;5015953;28;20195;-72
2022/04/15 01:05:30;;;;;;;8.02;4.88;;;;;;;-142.91;100.00;56616.03;5016083;28;20223;-70
2022/04/15 01:08:00;;;;;;;6.47;5.88;;;;;;;-142.91;100.00;56616.03;5015041;28;20236;-72
2022/04/15 01:10:28;;;;;;;7.40;5.50;;;;;;;-142.91;100.00;56616.03;5016163;28;20200;-70
2022/04/15 01:12:56;;;;;;;12.73;6.35;;;;;;;-142.91;100.00;56616.03;5015067;28;20293;-70
2022/04/15 01:15:25;;;;;;;9.10;5.35;;;;;;;-142.91;100.00;56616.03;5015560;28;20263;-70
2022/04/15 01:17:52;;;;;;;11.68;5.25;;;;;;;-142.91;100.00;56616.03;5014421;28;20227;-70
2022/04/15 01:20:19;;;;;;;8.07;5.57;;;;;;;-142.91;100.00;56616.03;5015059;28;20231;-70
2022/04/15 01:22:48;;;;;;;7.68;5.95;;;;;;;-142.91;100.00;56616.03;5016344;28;20216;-70
2022/04/15 01:25:17;;;;;;;7.82;6.38;;;;;;;-142.91;100.00;56616.03;5015631;28;20235;-69
2022/04/15 01:27:46;;;;;;;14.07;6.82;;;;;;;-142.91;100.00;56616.03;5014368;28;21588;-72
2022/04/15 01:30:16;;;;;;;10.60;6.95;;;;;;;-142.91;100.00;56616.03;5015069;28;20628;-71
2022/04/15 01:32:43;;;;;;;8.60;6.68;;;;;;;-142.91;100.00;56616.03;5016435;28;20239;-70
2022/04/15 01:35:12;;;;;;;10.77;6.45;;;;;;;-142.91;100.00;56616.03;5015786;28;20231;-70
2022/04/15 01:37:40;;;;;;;8.43;6.28;;;;;;;-142.91;100.00;56616.03;5015221;28;20231;-70
2022/04/15 01:40:09;;;;;;;12.05;6.97;;;;;;;-142.91;100.00;56616.03;5013380;28;21674;-71
2022/04/15 01:42:38;;;;;;;8.52;5.82;;;;;;;-142.91;100.00;56616.03;5013816;28;20322;-71
2022/04/15 01:45:06;;;;;;;15.30;7.32;;;;;;;-142.91;100.00;56616.03;5014508;28;20235;-70
2022/04/15 01:47:33;;;;;;;12.93;7.13;;;;;;;-142.91;100.00;56616.03;5018383;28;20228;-72
2022/04/15 01:50:02;;;;;;;17.98;7.25;;;;;;;-142.91;100.00;56616.03;5017263;28;20235;-70
2022/04/15 01:52:29;;;;;;;9.02;7.15;;;;;;;-142.91;100.00;56616.03;5017971;28;20203;-70
2022/04/15 01:54:56;;;;;;;10.32;7.78;;;;;;;-142.91;100.00;56616.03;5018883;28;20630;-70
2022/04/15 01:57:23;;;;;;;9.77;6.70;;;;;;;-142.91;100.00;56616.03;5019573;28;20203;-70
2022/04/15 01:59:51;;;;;;;15.40;6.72;;;;;;;-142.91;100.00;56616.03;5019147;28;20301;-72
2022/04/15 02:02:18;;;;;;;8.93;6.20;;;;;;;-142.91;100.00;56616.03;5019419;28;20281;-72
2022/04/15 02:04:44;;;;;;;6.72;6.10;;;;;;;-142.91;100.00;56616.03;5019056;28;20262;-72
2022/04/15 02:07:11;;;;;;;9.70;7.05;;;;;;;-142.91;100.00;56616.03;5019226;28;20289;-69
2022/04/15 02:09:38;;;;;;;11.65;5.70;;;;;;;-142.91;100.00;56616.03;5018914;28;20235;-70
2022/04/15 02:12:05;;;;;;;11.95;6.78;;;;;;;-142.91;100.00;56616.03;5018728;28;20231;-70
2022/04/15 02:14:32;;;;;;;10.48;6.28;;;;;;;-142.91;100.00;56616.03;5019000;28;20756;-70
2022/04/15 02:17:00;;;;;;;9.70;6.78;;;;;;;-142.91;100.00;56616.03;5019125;28;20289;-70
2022/04/15 02:19:27;;;;;;;9.18;6.47;;;;;;;-142.91;100.00;56616.03;5018818;28;20269;-70
2022/04/15 02:21:54;;;;;;;8.02;6.40;;;;;;;-142.91;100.00;56616.03;5019137;28;20660;-71
2022/04/15 02:24:21;;;;;;;15.43;7.38;;;;;;;-142.91;100.00;56616.03;5018271;28;20196;-72
2022/04/15 02:26:47;;;;;;;7.07;6.38;;;;;;;-142.91;100.00;56616.03;5019189;28;20285;-71
2022/04/15 02:29:14;;;;;;;8.10;5.93;;;;;;;-142.91;100.00;56616.03;5018379;28;21301;-70
2022/04/15 02:31:42;;;;;;;10.07;6.55;;;;;;;-142.91;100.00;56616.03;5018798;28;20694;-70
2022/04/15 02:34:11;;;;;;;8.95;6.70;;;;;;;-142.91;100.00;56616.03;5018804;28;20675;-70
2022/04/15 02:36:37;;;;;;;7.35;6.55;;;;;;;-142.91;100.00;56616.03;5018261;28;20305;-70
2022/04/15 02:39:10;;;;;;;12.70;6.60;;;;;;;-142.91;100.00;56616.03;5018372;28;20207;-70
2022/04/15 02:41:39;;;;;;;9.13;6.38;;;;;;;-142.91;100.00;56616.03;5018984;28;20200;-70
2022/04/15 02:44:08;;;;;;;15.02;6.38;;;;;;;-142.91;100.00;56616.03;5018144;28;20290;-70
2022/04/15 02:46:35;;;;;;;13.40;6.15;;;;;;;-142.91;100.00;56616.03;5018671;28;20210;-71
2022/04/15 02:49:02;;;;;;;8.88;6.15;;;;;;;-142.91;100.00;56616.03;5017611;28;20285;-72
2022/04/15 02:51:34;;;;;;;11.05;6.25;;;;;;;-142.91;100.00;56616.03;5018325;28;20285;-72
2022/04/15 02:54:01;;;;;;;7.63;6.18;;;;;;;-142.91;100.00;56616.03;5018265;28;20285;-70
2022/04/15 02:56:27;;;;;;;9.52;6.10;;;;;;;-142.91;100.00;56616.03;5017497;28;20805;-70
2022/04/15 02:58:54;;;;;;;9.30;6.38;;;;;;;-142.91;100.00;56616.03;5018076;28;20313;-72
2022/04/15 03:01:22;;;;;;;8.48;5.95;;;;;;;-142.91;100.00;56616.03;5017637;28;21795;-70
2022/04/15 03:03:49;;;;;;;8.60;5.05;;;;;;;-142.91;100.00;56616.03;5017960;28;20258;-70
2022/04/15 03:06:16;;;;;;;6.70;4.90;;;;;;;-142.91;100.00;56616.03;5018479;28;20204;-69
2022/04/15 03:08:44;;;;;;;15.40;6.30;;;;;;;-142.91;100.00;56616.03;5017921;28;20224;-70
2022/04/15 03:11:11;;;;;;;10.50;5.82;;;;;;;-142.91;100.00;56616.03;5018113;28;20250;-71
2022/04/15 03:13:38;;;;;;;8.63;5.95;;;;;;;-142.91;100.00;56616.03;5017252;28;20235;-70
2022/04/15 03:16:05;;;;;;;7.85;6.05;;;;;;;-142.91;100.00;56616.03;5017930;28;20313;-70
2022/04/15 03:18:32;;;;;;;11.32;7.28;;;;;;;-142.91;100.00;56616.03;5017614;28;20250;-69
2022/04/15 03:20:59;;;;;;;9.63;6.15;;;;;;;-142.91;100.00;56616.03;5017836;28;20691;-70
2022/04/15 03:23:26;;;;;;;11.80;6.95;;;;;;;-142.91;100.00;56616.03;5017751;28;20808;-70
2022/04/15 03:25:54;;;;;;;10.60;6.38;;;;;;;-142.91;100.00;56616.03;5017624;28;20683;-72
2022/04/15 03:28:20;;;;;;;10.10;7.22;;;;;;;-142.91;100.00;56616.03;5017604;28;20220;-70
2022/04/15 03:30:48;;;;;;;13.82;7.07;;;;;;;-142.91;100.00;56616.03;5017449;28;20207;-70
2022/04/15 03:33:14;;;;;;;8.15;7.28;;;;;;;-142.91;100.00;56616.03;5017844;28;20250;-72
2022/04/15 03:35:41;;;;;;;12.43;7.72;;;;;;;-142.91;100.00;56616.03;5017958;28;20231;-70
2022/04/15 03:38:08;;;;;;;18.55;7.25;;;;;;;-142.91;100.00;56616.03;5017100;28;20207;-70
2022/04/15 03:40:35;;;;;;;14.25;7.32;;;;;;;-142.91;100.00;56616.03;5014487;28;20460;-70
2022/04/15 03:43:04;;;;;;;13.48;8.07;;;;;;;-142.91;100.00;56616.03;5012488;28;21934;-72
2022/04/15 03:45:31;;;;;;;16.00;7.70;;;;;;;-142.91;100.00;56616.03;5015945;28;20184;-70
2022/04/15 03:47:58;;;;;;;22.95;7.57;;;;;;;-142.91;100.00;56616.03;5014344;28;20231;-71
2022/04/15 03:50:25;;;;;;;14.27;7.40;;;;;;;-142.91;100.00;56616.03;5015445;28;20280;-70
2022/04/15 03:52:55;;;;;;;15.63;7.65;;;;;;;-142.91;100.00;56616.03;5015392;28;20297;-70
2022/04/15 03:55:24;;;;;;;15.52;8.32;;;;;;;-142.91;100.00;56616.03;5016492;28;20239;-72
2022/04/15 03:57:51;;;;;;;17.83;9.40;;;;;;;-142.91;100.00;56616.03;5015788;28;20702;-73
2022/04/15 04:00:20;;;;;;;26.83;11.70;;;;;;;-142.91;100.00;56616.03;5015736;28;20723;-69
2022/04/15 04:02:49;;;;;;;21.13;10.55;;;;;;;-142.91;100.00;56616.03;5015448;28;20261;-70
2022/04/15 04:05:16;;;;;;;22.95;8.00;;;;;;;-142.91;100.00;56616.03;5015603;28;20235;-70
2022/04/15 04:07:45;;;;;;;18.73;7.88;;;;;;;-142.91;100.00;56616.03;5015433;28;20277;-70
2022/04/15 04:10:14;;;;;;;19.13;8.43;;;;;;;-142.91;100.00;56616.03;5015167;28;20238;-70
2022/04/15 04:12:42;;;;;;;25.98;7.53;;;;;;;-142.91;100.00;56616.03;5014900;28;20231;-70
2022/04/15 04:15:10;;;;;;;19.45;8.10;;;;;;;-142.91;100.00;56616.03;5015217;28;20300;-69
2022/04/15 04:17:38;;;;;;;24.23;11.95;;;;;;;-142.91;100.00;56616.03;5015507;28;20243;-71
2022/04/15 04:20:07;;;;;;;41.30;16.90;;;;;;;-142.91;100.00;56616.03;5014927;28;20300;-72
2022/04/15 04:22:35;;;;;;;32.33;14.85;;;;;;;-142.91;100.00;56616.03;5016039;28;20235;-70
2022/04/15 04:25:03;;;;;;;34.35;9.43;;;;;;;-142.91;100.00;56616.03;5014223;28;20342;-71
2022/04/15 04:27:30;;;;;;;24.13;8.85;;;;;;;-142.91;100.00;56616.03;5015689;28;20348;-68
2022/04/15 04:29:57;;;;;;;23.83;8.68;;;;;;;-142.91;100.00;56616.03;5014830;28;20203;-72
2022/04/15 04:32:23;;;;;;;24.95;7.68;;;;;;;-142.91;100.00;56616.03;5015529;28;20232;-69
2022/04/15 04:34:52;;;;;;;36.05;8.90;;;;;;;-142.91;100.00;56616.03;5015380;28;20634;-71
2022/04/15 04:37:18;;;;;;;57.83;23.75;;;;;;;-142.91;100.00;56616.03;5014659;28;20271;-72
2022/04/15 04:39:45;;;;;;;61.67;23.85;;;;;;;-142.91;100.00;56616.03;5014671;28;20958;-72
2022/04/15 04:42:12;;;;;;;30.08;11.85;;;;;;;-142.91;100.00;56616.03;5015806;28;20217;-73
2022/04/15 04:44:40;;;;;;;29.05;10.18;;;;;;;-142.91;100.00;56616.03;5014601;28;20231;-69
2022/04/15 04:47:09;;;;;;;25.20;12.45;;;;;;;-142.91;100.00;56616.03;4997883;28;20208;-69
2022/04/15 04:49:37;;;;;;;27.10;14.52;;;;;;;-142.91;100.00;56616.03;5015013;28;20232;-69
2022/04/15 04:52:06;;;;;;;24.30;14.38;;;;;;;-142.91;100.00;56616.03;5015109;28;20983;-70
2022/04/15 04:54:33;;;;;;;34.35;14.40;;;;;;;-142.91;100.00;56616.03;5014399;28;20702;-70
2022/04/15 04:57:00;;;;;;;25.17;12.18;;;;;;;-142.91;100.00;56616.03;5015028;28;20262;-71
2022/04/15 04:59:29;;;;;;;23.75;10.93;;;;;;;-142.91;100.00;56616.03;5014764;28;20204;-70
2022/04/15 05:01:56;;;;;;;21.77;13.20;;;;;;;-142.91;100.00;56616.03;5014876;28;20214;-70
2022/04/15 05:04:22;;;;;;;28.05;13.30;;;;;;;-142.91;100.00;56616.03;5014329;28;20254;-71
2022/04/15 05:06:49;;;;;;;35.92;14.70;;;;;;;-142.91;100.00;56616.03;5015637;28;20875;-73
2022/04/15 05:09:17;;;;;;;22.45;11.82;;;;;;;-142.91;100.00;56616.03;5014886;28;20253;-73
2022/04/15 05:11:44;;;;;;;23.27;12.13;;;;;;;-142.91;100.00;56616.03;5014976;28;21343;-71
2022/04/15 05:14:11;;;;;;;21.17;12.45;;;;;;;-142.91;100.00;56616.03;5013829;28;20729;-70
2022/04/15 05:16:37;;;;;;;24.42;11.07;;;;;;;-142.91;100.00;56616.03;5014935;28;20239;-70
2022/04/15 05:19:04;;;;;;;16.15;9.70;;;;;;;-142.91;100.00;56616.03;5014264;28;20261;-71
2022/04/15 05:21:34;;;;;;;27.02;10.95;;;;;;;-142.91;100.00;56616.03;5018244;28;20238;-71
2022/04/15 05:24:02;;;;;;;30.50;15.38;;;;;;;-142.91;100.00;56616.03;5018870;28;20210;-71
2022/04/15 05:26:33;;;;;;;22.33;12.80;;;;;;;-142.91;100.00;56616.03;5018482;28;20344;-72
2022/04/15 05:29:00;;;;;;;19.77;10.70;;;;;;;-142.91;100.00;56616.03;5018774;28;20227;-70
2022/04/15 05:31:29;;;;;;;21.13;10.70;;;;;;;-142.91;100.00;56616.03;5018708;28;20671;-73
2022/04/15 05:33:56;;;;;;;28.15;13.63;;;;;;;-142.91;100.00;56616.03;5018591;28;20273;-70
2022/04/15 05:36:23;;;;;;;20.23;12.45;;;;;;;-142.91;100.00;56616.03;5018915;28;20373;-71
2022/04/15 05:38:49;;;;;;;29.08;14.00;;;;;;;-142.91;100.00;56616.03;5018266;28;20362;-73
2022/04/15 05:41:16;;;;;;;31.50;11.30;;;;;;;-142.91;100.00;56616.03;5018740;28;20745;-70
2022/04/15 05:43:44;;;;;;;26.20;10.45;;;;;;;-142.91;100.00;56616.03;5017879;28;20208;-74
2022/04/15 05:46:11;;;;;;;23.67;10.65;;;;;;;-142.91;100.00;56616.03;5018485;28;20648;-70
2022/04/15 05:48:38;;;;;;;21.55;13.63;;;;;;;-142.91;100.00;56616.03;5018658;28;20640;-70
2022/04/15 05:51:05;;;;;;;20.77;10.27;;;;;;;-142.91;100.00;56616.03;5018703;28;20235;-71
2022/04/15 05:53:31;;;;;;;11.00;8.23;;;;;;;-142.91;100.00;56616.03;5018058;28;20321;-72
2022/04/15 05:55:58;;;;;;;18.08;8.70;;;;;;;-142.91;100.00;56616.03;5018680;28;20292;-72
2022/04/15 05:58:25;;;;;;;16.00;9.20;;;;;;;-142.91;100.00;56616.03;5018022;28;20730;-73
2022/04/15 06:00:54;;;;;;;19.75;8.68;;;;;;;-142.91;100.00;56616.03;5018253;28;21432;-72
2022/04/15 06:03:21;;;;;;;13.93;11.30;;;;;;;-142.91;100.00;56616.03;5017883;28;20313;-70
2022/04/15 06:05:48;;;;;;;17.60;11.30;;;;;;;-142.91;100.00;56616.03;5017102;28;20482;-71
2022/04/15 06:08:14;;;;;;;12.98;9.90;;;;;;;-142.91;100.00;56616.03;5017835;28;20203;-71
2022/04/15 06:10:41;;;;;;;16.15;9.77;;;;;;;-142.91;100.00;56616.03;5017911;28;20671;-71
2022/04/15 06:13:13;;;;;;;15.57;9.38;;;;;;;-142.91;100.00;56616.03;5017556;28;20297;-71
2022/04/15 06:15:51;;;;;;;13.43;9.68;;;;;;;-142.91;100.00;56616.03;5018135;28;20212;-71
2022/04/15 06:18:19;;;;;;;17.63;9.98;;;;;;;-142.91;100.00;56616.03;5017653;28;20267;-71
2022/04/15 06:20:46;;;;;;;13.98;9.75;;;;;;;-142.91;100.00;56616.03;5017425;28;20291;-72
2022/04/15 06:23:13;;;;;;;11.02;9.38;;;;;;;-142.91;100.00;56616.03;5017603;28;20203;-70
2022/04/15 06:25:40;;;;;;;9.57;8.77;;;;;;;-142.91;100.00;56616.03;5017542;28;20254;-72
2022/04/15 06:28:08;;;;;;;20.80;9.20;;;;;;;-142.91;100.00;56616.03;5017816;28;20306;-72
2022/04/15 06:30:35;;;;;;;11.13;8.93;;;;;;;-142.91;100.00;56616.03;5017129;28;20208;-70
2022/04/15 06:33:02;;;;;;;10.68;8.07;;;;;;;-142.91;100.00;56616.03;5017655;28;20294;-72
2022/04/15 06:35:30;;;;;;;12.13;9.07;;;;;;;-142.91;100.00;56616.03;5017838;28;20664;-72
2022/04/15 06:37:56;;;;;;;19.13;9.43;;;;;;;-142.91;100.00;56616.03;5016982;28;20301;-73
2022/04/15 06:40:23;;;;;;;13.18;10.13;;;;;;;-142.91;100.00;56616.03;5016727;28;20760;-71
2022/04/15 06:42:50;;;;;;;12.68;8.88;;;;;;;-142.91;100.00;56616.03;5017410;28;20290;-70
2022/04/15 06:45:17;;;;;;;13.23;8.27;;;;;;;-142.91;100.00;56616.03;5017726;28;20200;-72
2022/04/15 06:47:44;;;;;;;19.23;11.15;;;;;;;-142.91;100.00;56616.03;5017791;28;20237;-72
2022/04/15 06:50:11;;;;;;;14.82;12.32;;;;;;;-142.91;100.00;56616.03;5016930;28;20211;-71
2022/04/15 06:52:39;;;;;;;15.05;10.20;;;;;;;-142.91;100.00;56616.03;5017392;28;20286;-71
2022/04/15 06:55:07;;;;;;;9.10;8.27;;;;;;;-142.91;100.00;56616.03;5016795;28;20289;-69
2022/04/15 06:57:33;;;;;;;13.90;8.07;;;;;;;-142.91;100.00;56616.03;5017848;28;20238;-70
2022/04/15 07:00:00;;;;;;;14.10;9.32;;;;;;;-142.91;100.00;56616.03;5016634;28;20234;-70
2022/04/15 07:02:27;;;;;;;9.52;8.25;;;;;;;-142.91;100.00;56616.03;5016973;28;20235;-71
2022/04/15 07:04:54;;;;;;;9.48;8.23;;;;;;;-142.91;100.00;56616.03;5017214;28;20687;-70
2022/04/15 07:07:20;;;;;;;8.63;7.80;;;;;;;-142.91;100.00;56616.03;5017107;28;20313;-70
2022/04/15 07:09:50;;;;;;;9.13;7.53;;;;;;;-142.91;100.00;56616.03;5016357;28;20231;-70
2022/04/15 07:12:17;;;;;;;16.25;8.02;;;;;;;-142.91;100.00;56616.03;5017069;28;20206;-71
2022/04/15 07:14:44;;;;;;;9.63;8.45;;;;;;;-142.91;100.00;56616.03;5016765;28;20289;-70
2022/04/15 07:17:11;;;;;;;15.73;8.52;;;;;;;-142.91;100.00;56616.03;5016664;28;20679;-71
2022/04/15 07:19:38;;;;;;;14.98;8.63;;;;;;;-142.91;100.00;56616.03;5015642;28;20203;-73
2022/04/15 07:22:06;;;;;;;10.93;8.43;;;;;;;-142.91;100.00;56616.03;5016310;28;20616;-71
2022/04/15 07:24:35;;;;;;;8.48;7.40;;;;;;;-142.91;100.00;56616.03;5016452;28;20347;-72
2022/04/15 07:27:04;;;;;;;17.83;8.13;;;;;;;-142.91;100.00;56616.03;5015826;28;20192;-72
2022/04/15 07:29:31;;;;;;;12.15;8.23;;;;;;;-142.91;100.00;56616.03;5014259;28;20208;-72
2022/04/15 07:31:58;;;;;;;16.13;7.32;;;;;;;-142.91;100.00;56616.03;5016674;28;20670;-73
2022/04/15 07:34:26;;;;;;;14.55;6.95;;;;;;;-142.91;100.00;56616.03;5015639;28;20200;-73
2022/04/15 07:36:54;;;;;;;17.67;7.05;;;;;;;-142.91;100.00;56616.03;5016438;28;20781;-71
2022/04/15 07:39:22;;;;;;;10.40;7.45;;;;;;;-142.91;100.00;56616.03;5016266;28;20195;-71
2022/04/15 07:41:49;;;;;;;14.20;7.45;;;;;;;-142.91;100.00;56616.03;5016341;28;20253;-72
2022/04/15 07:44:18;;;;;;;12.70;7.85;;;;;;;-142.91;100.00;56616.03;5015151;28;20350;-73
2022/04/15 07:46:46;;;;;;;10.85;6.97;;;;;;;-142.91;100.00;56616.03;5016417;28;20204;-71
2022/04/15 07:49:13;;;;;;;16.67;7.00;;;;;;;-142.91;100.00;56616.03;5016176;28;20286;-69
2022/04/15 07:51:40;;;;;;;9.43;8.45;;;;;;;-142.91;100.00;56616.03;5015737;28;20204;-71
2022/04/15 07:54:07;;;;;;;11.23;9.35;;;;;;;-142.91;100.00;56616.03;5016266;28;20707;-72
2022/04/15 07:56:35;;;;;;;9.73;8.23;;;;;;;-142.91;100.00;56616.03;5016434;28;20219;-71
2022/04/15 07:59:02;;;;;;;20.02;9.10;;;;;;;-142.91;100.00;56616.03;5016530;28;20656;-72
2022/04/15 08:01:30;;;;;;;13.52;7.57;;;;;;;-142.91;100.00;56616.03;5015796;28;20314;-71
2022/04/15 08:03:59;;;;;;;10.55;7.00;;;;;;;-142.91;100.00;56616.03;5014447;28;20635;-70
2022/04/15 08:06:28;;;;;;;8.32;6.15;;;;;;;-142.91;100.00;56616.03;5016062;28;21055;-71
2022/04/15 08:08:55;;;;;;;7.45;5.38;;;;;;;-142.91;100.00;56616.03;5014488;28;20631;-72
2022/04/15 08:11:22;;;;;;;9.52;5.18;;;;;;;-142.91;100.00;56616.03;5014812;28;20259;-70
2022/04/15 08:13:49;;;;;;;8.60;5.35;;;;;;;-142.91;100.00;56616.03;5015010;28;20234;-70
2022/04/15 08:16:16;;;;;;;10.82;6.15;;;;;;;-142.91;100.00;56616.03;5015193;28;21274;-71
2022/04/15 08:18:45;;;;;;;8.15;5.35;;;;;;;-142.91;100.00;56616.03;5015314;28;20313;-69
2022/04/15 08:21:11;;;;;;;8.27;6.13;;;;;;;-142.91;100.00;56616.03;5015100;28;20239;-70
2022/04/15 08:23:38;;;;;;;10.63;6.45;;;;;;;-142.91;100.00;56616.03;5014362;28;20258;-70
2022/04/15 08:26:05;;;;;;;13.02;6.55;;;;;;;-142.91;100.00;56616.03;5015204;28;20195;-73
2022/04/15 08:28:32;;;;;;;8.35;5.70;;;;;;;-142.91;100.00;56616.03;5015335;28;20235;-70
2022/04/15 08:30:59;;;;;;;7.93;6.57;;;;;;;-142.91;100.00;56616.03;5014632;28;20253;-71
2022/04/15 08:33:25;;;;;;;15.90;6.43;;;;;;;-142.91;100.00;56616.03;5015583;28;20208;-71
2022/04/15 08:35:54;;;;;;;6.72;6.00;;;;;;;-142.91;100.00;56616.03;5012065;28;20212;-72
2022/04/15 08:38:21;;;;;;;18.50;7.32;;;;;;;-142.91;100.00;56616.03;5015235;28;20231;-72
2022/04/15 08:40:50;;;;;;;12.18;6.22;;;;;;;-142.91;100.00;56616.03;5013645;28;20294;-69
2022/04/15 08:43:17;;;;;;;14.82;6.63;;;;;;;-142.91;100.00;56616.03;5013999;28;20204;-71
2022/04/15 08:45:47;;;;;;;10.52;6.95;;;;;;;-142.91;100.00;56616.03;5014884;28;20285;-71
2022/04/15 08:48:14;;;;;;;14.55;7.35;;;;;;;-142.91;100.00;56616.03;5014667;28;20303;-72
2022/04/15 08:50:42;;;;;;;9.55;7.50;;;;;;;-142.91;100.00;56616.03;5014725;28;20734;-73
2022/04/15 08:53:10;;;;;;;10.23;6.72;;;;;;;-142.91;100.00;56616.03;5014356;28;20231;-71
2022/04/15 08:55:37;;;;;;;13.77;8.43;;;;;;;-142.91;100.00;56616.03;5013997;28;20238;-71
2022/04/15 08:58:04;;;;;;;10.68;5.75;;;;;;;-142.91;100.00;56616.03;5012756;28;20314;-71
2022/04/15 09:00:32;;;;;;;14.82;6.68;;;;;;;-142.91;100.00;56616.03;5013768;28;20210;-72
2022/04/15 09:02:59;;;;;;;11.23;6.00;;;;;;;-142.91;100.00;56616.03;5014522;28;20226;-70
2022/04/15 09:05:27;;;;;;;8.00;6.63;;;;;;;-142.91;100.00;56616.03;5014401;28;20208;-71
2022/04/15 09:08:05;;;;;;;12.30;6.47;;;;;;;-142.91;100.00;56616.03;5013873;28;20288;-71
2022/04/15 09:10:34;;;;;;;13.15;6.65;;;;;;;-142.91;100.00;56616.03;5014068;28;20261;-71
2022/04/15 09:13:01;;;;;;;17.80;11.82;;;;;;;-142.91;100.00;56616.03;5014258;28;20702;-72
2022/04/15 09:15:28;;;;;;;36.17;20.55;;;;;;;-142.91;100.00;56616.03;5015012;28;20294;-74
2022/04/15 09:17:55;;;;;;;11.93;7.53;;;;;;;-142.91;100.00;56616.03;4995459;28;20236;-71
2022/04/15 09:20:23;;;;;;;10.48;6.57;;;;;;;-142.91;100.00;56616.03;5014295;28;20212;-72
2022/04/15 09:22:55;;;;;;;8.85;6.63;;;;;;;-142.91;100.00;56616.03;5014222;28;20207;-71
2022/04/15 09:25:29;;;;;;;13.00;7.25;;;;;;;-142.91;100.00;56616.03;5014877;28;20683;-73
2022/04/15 09:27:58;;;;;;;10.38;5.88;;;;;;;-142.91;100.00;56616.03;5012170;28;20207;-70
2022/04/15 09:30:36;;;;;;;15.68;7.15;;;;;;;-142.91;100.00;56616.03;5012575;28;20214;-70
2022/04/15 09:33:04;;;;;;;10.18;6.40;;;;;;;-142.91;100.00;56616.03;5014081;28;21068;-70
2022/04/15 09:35:31;;;;;;;9.00;6.47;;;;;;;-142.91;100.00;56616.03;5014268;28;20289;-70
2022/04/15 09:38:04;;;;;;;16.10;6.78;;;;;;;-142.91;100.00;56616.03;5014097;28;20314;-73
2022/04/15 09:40:35;;;;;;;13.35;7.20;;;;;;;-142.91;100.00;56616.03;5013518;28;20204;-73
2022/04/15 09:43:06;;;;;;;10.23;7.57;;;;;;;-142.91;100.00;56616.03;5014171;28;20207;-72
2022/04/15 09:45:35;;;;;;;18.45;6.53;;;;;;;-142.91;100.00;56616.03;5013756;28;20299;-71
2022/04/15 09:48:04;;;;;;;14.70;7.05;;;;;;;-142.91;100.00;56616.03;5014256;28;20302;-71
2022/04/15 09:50:34;;;;;;;8.25;5.78;;;;;;;-142.91;100.00;56616.03;5013082;28;20204;-72
2022/04/15 09:53:10;;;;;;;8.48;6.35;;;;;;;-142.91;100.00;56616.03;5012675;28;20200;-71
2022/04/15 09:55:39;;;;;;;9.98;6.93;;;;;;;-142.91;100.00;56616.03;5016826;28;20192;-71
2022/04/15 09:58:10;;;;;;;16.05;10.95;;;;;;;-142.91;100.00;56616.03;5025064;28;20231;-71
2022/04/15 10:00:38;;;;;;;9.40;6.93;;;;;;;-142.91;100.00;56616.03;5024737;28;20290;-70
2022/04/15 10:03:08;;;;;;;11.60;6.03;;;;;;;-142.91;100.00;56616.03;5026491;28;20254;-72
2022/04/15 10:05:36;;;;;;;12.13;7.05;;;;;;;-142.91;100.00;56616.03;5027015;28;20637;-70
2022/04/15 10:08:04;;;;;;;7.65;5.97;;;;;;;-142.91;100.00;56616.03;5022001;28;20630;-70
2022/04/15 10:10:31;;;;;;;9.38;5.55;;;;;;;-142.91;100.00;56616.03;5011547;28;20199;-70
2022/04/15 10:13:01;;;;;;;12.00;6.45;;;;;;;-142.91;100.00;56616.03;5011104;28;20371;-71
2022/04/15 10:15:30;;;;;;;5.85;5.15;;;;;;;-142.91;100.00;56616.03;5009526;28;20239;-72
2022/04/15 10:17:57;;;;;;;7.68;5.40;;;;;;;-142.91;100.00;56616.03;5010579;28;20755;-72
2022/04/15 10:20:26;;;;;;;10.48;6.80;;;;;;;-142.91;100.00;56616.03;5029434;28;20196;-72
2022/04/15 10:22:54;;;;;;;10.27;5.60;;;;;;;-142.91;100.00;56616.03;5028323;28;20203;-72
2022/04/15 10:25:21;;;;;;;6.22;5.38;;;;;;;-142.91;100.00;56616.03;5009126;28;20262;-73
2022/04/15 10:27:48;;;;;;;9.65;5.15;;;;;;;-142.91;100.00;56616.03;5010018;28;20278;-70
2022/04/15 10:30:18;;;;;;;8.38;4.88;;;;;;;-142.91;100.00;56616.03;5011586;28;20281;-70
2022/04/15 10:32:51;;;;;;;5.80;5.05;;;;;;;-142.91;100.00;56616.03;5011281;28;20699;-71
2022/04/15 10:35:23;;;;;;;15.43;5.00;;;;;;;-142.91;100.00;56616.03;5013272;28;20291;-70
2022/04/15 10:38:02;;;;;;;7.38;4.53;;;;;;;-142.91;100.00;56616.03;5012671;28;20283;-72
2022/04/15 10:40:31;;;;;;;7.10;5.13;;;;;;;-142.91;100.00;56616.03;5013347;28;20227;-71
2022/04/15 10:43:05;;;;;;;7.05;4.60;;;;;;;-142.91;100.00;56616.03;5013320;28;20196;-70
2022/04/15 10:45:36;;;;;;;9.25;5.32;;;;;;;-142.91;100.00;56616.03;5012688;28;20191;-71
2022/04/15 10:48:06;;;;;;;8.23;5.20;;;;;;;-142.91;100.00;56616.03;5014020;28;20212;-71
2022/04/15 10:50:35;;;;;;;5.53;4.97;;;;;;;-142.91;100.00;56616.03;5032240;28;20241;-70
2022/04/15 10:53:29;;;;;;;5.47;4.60;;;;;;;-142.91;100.00;56616.03;5019655;28;20192;-71
2022/04/15 10:56:07;;;;;;;6.93;5.53;;;;;;;-142.91;100.00;56616.03;5012569;28;20200;-73
2022/04/15 11:01:13;;;;;;;5.82;4.10;;;;;;;-142.91;100.00;56616.03;5027364;28;20293;-72
2022/04/15 11:01:20;;;;;;;5.80;4.40;;;;;;;-142.91;100.00;56616.03;5032163;28;20195;-71
2022/04/15 11:03:53;;;;;;;11.20;5.00;;;;;;;-142.91;100.00;56616.03;5023997;28;20200;-70
2022/04/15 11:06:27;;;;;;;10.30;5.70;;;;;;;-142.91;100.00;56616.03;5013940;28;20211;-73